DLH205 MDSD-MMMX
Flight info
| Callsign | DLH205 |
|---|---|
| Flight time | N/A |
| Altitude | 38000 |
| Route | ETBOD2J ETBOD DCT AVALU DCT KEBET DCT TALOS DCT LANDA DCT XORUV DCT LARLO LARLO4A |
| Aircraft | A388/J-SADE2E3FGHIJ3J4J5M1RWXY/LB1D1 |
Departure
| Time | 2026-05-07 22:33 |
|---|---|
| Airport | Las Américas International Airport (MDSD) |
Arrival
| Time | N/A |
|---|---|
| Airport | Mexico City Benito Juárez International Airport (MMMX) |
| Time | Latitude | Longitude | Altitude | Speed | Heading |
|---|---|---|---|---|---|
| 2026-05-07 21:33 | 18.43248 | -69.67645 | 75 ft | 0 kts | 213° |
| 2026-05-07 22:20 | 18.43257 | -69.67638 | 75 ft | 2 kts | 213° |
| 2026-05-07 22:21 | 18.43270 | -69.67630 | 75 ft | 2 kts | 213° |
| 2026-05-07 22:21 | 18.43282 | -69.67621 | 75 ft | 2 kts | 213° |
| 2026-05-07 22:21 | 18.43295 | -69.67612 | 75 ft | 2 kts | 224° |
| 2026-05-07 22:21 | 18.43305 | -69.67599 | 75 ft | 2 kts | 246° |
| 2026-05-07 22:22 | 18.43311 | -69.67583 | 75 ft | 2 kts | 264° |
| 2026-05-07 22:22 | 18.43311 | -69.67566 | 75 ft | 2 kts | 282° |
| 2026-05-07 22:22 | 18.43306 | -69.67550 | 75 ft | 2 kts | 300° |
| 2026-05-07 22:22 | 18.43298 | -69.67536 | 75 ft | 2 kts | 317° |
| 2026-05-07 22:23 | 18.43286 | -69.67526 | 75 ft | 2 kts | 334° |
| 2026-05-07 22:23 | 18.43278 | -69.67521 | 75 ft | 1 kts | 343° |
| 2026-05-07 22:23 | 18.43275 | -69.67520 | 75 ft | 0 kts | 341° |
| 2026-05-07 22:28 | 18.43286 | -69.67524 | 75 ft | 6 kts | 341° |
| 2026-05-07 22:28 | 18.43350 | -69.67527 | 75 ft | 11 kts | 27° |
| 2026-05-07 22:29 | 18.43410 | -69.67462 | 75 ft | 14 kts | 47° |
| 2026-05-07 22:29 | 18.43481 | -69.67381 | 75 ft | 16 kts | 47° |
| 2026-05-07 22:29 | 18.43578 | -69.67321 | 75 ft | 17 kts | 2° |
| 2026-05-07 22:29 | 18.43692 | -69.67352 | 75 ft | 17 kts | 340° |
| 2026-05-07 22:30 | 18.43808 | -69.67395 | 75 ft | 18 kts | 340° |
| 2026-05-07 22:30 | 18.43929 | -69.67440 | 75 ft | 19 kts | 340° |
| 2026-05-07 22:30 | 18.44054 | -69.67485 | 75 ft | 19 kts | 340° |
| 2026-05-07 22:30 | 18.44144 | -69.67519 | 75 ft | 14 kts | 340° |
| 2026-05-07 22:31 | 18.44244 | -69.67543 | 75 ft | 16 kts | 4° |
| 2026-05-07 22:31 | 18.44345 | -69.67487 | 75 ft | 17 kts | 50° |
| 2026-05-07 22:31 | 18.44335 | -69.67395 | 75 ft | 11 kts | 142° |
| 2026-05-07 22:31 | 18.44297 | -69.67379 | 75 ft | 2 kts | 160° |
| 2026-05-07 22:32 | 18.44295 | -69.67379 | 75 ft | 0 kts | 160° |
| 2026-05-07 22:32 | 18.44207 | -69.67346 | 75 ft | 42 kts | 160° |
| 2026-05-07 22:32 | 18.43706 | -69.67164 | 75 ft | 111 kts | 161° |
| 2026-05-07 22:33 | 18.42759 | -69.66820 | 91 ft | 176 kts | 161° |
| 2026-05-07 22:33 | 18.41518 | -69.66373 | 696 ft | 202 kts | 160° |
| 2026-05-07 22:33 | 18.40136 | -69.65855 | 1414 ft | 222 kts | 160° |
| 2026-05-07 22:33 | 18.38633 | -69.65454 | 2030 ft | 228 kts | 179° |
| 2026-05-07 22:34 | 18.37156 | -69.66012 | 2666 ft | 237 kts | 215° |
| 2026-05-07 22:34 | 18.36077 | -69.67328 | 3296 ft | 246 kts | 240° |
| 2026-05-07 22:34 | 18.35451 | -69.69009 | 3827 ft | 250 kts | 252° |
| 2026-05-07 22:34 | 18.34943 | -69.70758 | 4476 ft | 261 kts | 251° |
| 2026-05-07 22:35 | 18.34360 | -69.72639 | 5292 ft | 282 kts | 251° |
| 2026-05-07 22:35 | 18.33758 | -69.74619 | 6064 ft | 288 kts | 251° |
| 2026-05-07 22:35 | 18.33175 | -69.76653 | 6812 ft | 292 kts | 258° |
| 2026-05-07 22:35 | 18.32982 | -69.78775 | 7515 ft | 296 kts | 267° |
| 2026-05-07 22:36 | 18.33044 | -69.80956 | 8155 ft | 311 kts | 275° |
| 2026-05-07 22:36 | 18.33286 | -69.83315 | 8868 ft | 343 kts | 276° |
| 2026-05-07 22:36 | 18.33529 | -69.85918 | 9574 ft | 378 kts | 275° |
| 2026-05-07 22:36 | 18.33795 | -69.88724 | 10251 ft | 393 kts | 276° |
| 2026-05-07 22:37 | 18.34068 | -69.91586 | 10884 ft | 396 kts | 276° |
| 2026-05-07 22:37 | 18.34342 | -69.94487 | 11514 ft | 400 kts | 276° |
| 2026-05-07 22:37 | 18.34615 | -69.97397 | 12141 ft | 403 kts | 276° |
| 2026-05-07 22:37 | 18.34893 | -70.00319 | 12768 ft | 404 kts | 276° |
| 2026-05-07 22:38 | 18.35170 | -70.03250 | 13394 ft | 406 kts | 276° |
| 2026-05-07 22:38 | 18.35448 | -70.06202 | 14021 ft | 408 kts | 276° |
| 2026-05-07 22:38 | 18.35726 | -70.09177 | 14647 ft | 412 kts | 276° |
| 2026-05-07 22:38 | 18.36008 | -70.12176 | 15274 ft | 416 kts | 276° |
| 2026-05-07 22:39 | 18.36293 | -70.15222 | 15904 ft | 419 kts | 276° |
| 2026-05-07 22:39 | 18.36577 | -70.18275 | 16530 ft | 423 kts | 276° |
| 2026-05-07 22:39 | 18.36865 | -70.21355 | 17157 ft | 427 kts | 276° |
| 2026-05-07 22:39 | 18.37154 | -70.24462 | 17783 ft | 431 kts | 276° |
| 2026-05-07 22:40 | 18.37446 | -70.27600 | 18410 ft | 435 kts | 277° |
| 2026-05-07 22:40 | 18.37737 | -70.30764 | 19036 ft | 439 kts | 277° |
| 2026-05-07 22:40 | 18.38032 | -70.33956 | 19663 ft | 443 kts | 277° |
| 2026-05-07 22:40 | 18.38333 | -70.37204 | 20295 ft | 447 kts | 277° |
| 2026-05-07 22:41 | 18.38632 | -70.40455 | 20922 ft | 451 kts | 278° |
| 2026-05-07 22:41 | 18.38934 | -70.43738 | 21550 ft | 455 kts | 278° |
| 2026-05-07 22:41 | 18.39239 | -70.47053 | 22078 ft | 460 kts | 278° |
| 2026-05-07 22:41 | 18.39547 | -70.50404 | 22581 ft | 464 kts | 278° |
| 2026-05-07 22:42 | 18.39856 | -70.53782 | 23088 ft | 472 kts | 279° |
| 2026-05-07 22:42 | 18.40174 | -70.57247 | 23570 ft | 482 kts | 279° |
| 2026-05-07 22:42 | 18.40495 | -70.60783 | 24032 ft | 487 kts | 279° |
| 2026-05-07 22:42 | 18.40817 | -70.64327 | 24489 ft | 490 kts | 279° |
| 2026-05-07 22:43 | 18.41142 | -70.67890 | 24941 ft | 493 kts | 278° |
| 2026-05-07 22:43 | 18.41466 | -70.71475 | 25393 ft | 496 kts | 278° |
| 2026-05-07 22:43 | 18.41792 | -70.75082 | 25845 ft | 498 kts | 278° |
| 2026-05-07 22:43 | 18.42118 | -70.78704 | 26296 ft | 501 kts | 278° |
| 2026-05-07 22:44 | 18.42446 | -70.82351 | 26748 ft | 504 kts | 278° |
| 2026-05-07 22:44 | 18.42777 | -70.86044 | 27203 ft | 507 kts | 278° |
| 2026-05-07 22:44 | 18.43109 | -70.89728 | 27656 ft | 509 kts | 278° |
| 2026-05-07 22:44 | 18.43438 | -70.93431 | 28108 ft | 512 kts | 278° |
| 2026-05-07 22:45 | 18.43770 | -70.97156 | 28560 ft | 515 kts | 278° |
| 2026-05-07 22:45 | 18.44103 | -71.00898 | 29012 ft | 517 kts | 278° |
| 2026-05-07 22:45 | 18.44437 | -71.04661 | 29465 ft | 520 kts | 278° |
| 2026-05-07 22:45 | 18.44772 | -71.08441 | 29917 ft | 523 kts | 278° |
| 2026-05-07 22:46 | 18.45110 | -71.12268 | 30372 ft | 525 kts | 278° |
| 2026-05-07 22:46 | 18.45446 | -71.16096 | 30721 ft | 532 kts | 278° |
| 2026-05-07 22:46 | 18.45789 | -71.19982 | 30982 ft | 538 kts | 278° |
| 2026-05-07 22:46 | 18.46131 | -71.23889 | 31234 ft | 538 kts | 278° |
| 2026-05-07 22:47 | 18.46472 | -71.27797 | 31482 ft | 538 kts | 278° |
| 2026-05-07 22:47 | 18.46813 | -71.31697 | 31730 ft | 537 kts | 279° |
| 2026-05-07 22:47 | 18.47152 | -71.35594 | 31975 ft | 536 kts | 278° |
| 2026-05-07 22:47 | 18.47319 | -71.39528 | 32219 ft | 538 kts | 274° |
| 2026-05-07 22:48 | 18.47317 | -71.43446 | 32471 ft | 537 kts | 274° |
| 2026-05-07 22:48 | 18.47335 | -71.47359 | 32719 ft | 536 kts | 274° |
| 2026-05-07 22:48 | 18.47353 | -71.51261 | 32967 ft | 535 kts | 274° |
| 2026-05-07 22:48 | 18.47370 | -71.55166 | 33217 ft | 536 kts | 274° |
| 2026-05-07 22:49 | 18.47386 | -71.59072 | 33470 ft | 536 kts | 274° |
| 2026-05-07 22:49 | 18.47400 | -71.62974 | 33718 ft | 535 kts | 274° |
| 2026-05-07 22:49 | 18.47414 | -71.66910 | 33967 ft | 534 kts | 274° |
| 2026-05-07 22:49 | 18.47428 | -71.70802 | 34211 ft | 533 kts | 274° |
| 2026-05-07 22:50 | 18.47441 | -71.74682 | 34456 ft | 532 kts | 274° |
| 2026-05-07 22:50 | 18.47451 | -71.78553 | 34701 ft | 531 kts | 274° |
| 2026-05-07 22:50 | 18.47463 | -71.82416 | 34946 ft | 529 kts | 274° |
| 2026-05-07 22:50 | 18.47474 | -71.86266 | 35191 ft | 528 kts | 274° |
| 2026-05-07 22:51 | 18.47482 | -71.90106 | 35436 ft | 526 kts | 274° |
| 2026-05-07 22:51 | 18.47491 | -71.93968 | 35683 ft | 525 kts | 274° |
| 2026-05-07 22:51 | 18.47499 | -71.97787 | 35928 ft | 523 kts | 274° |
| 2026-05-07 22:51 | 18.47507 | -72.01594 | 36173 ft | 521 kts | 274° |
| 2026-05-07 22:52 | 18.47514 | -72.05389 | 36417 ft | 520 kts | 274° |
| 2026-05-07 22:52 | 18.47518 | -72.09178 | 36663 ft | 519 kts | 274° |
| 2026-05-07 22:52 | 18.47522 | -72.12959 | 36907 ft | 519 kts | 274° |
| 2026-05-07 22:52 | 18.47527 | -72.16735 | 37152 ft | 518 kts | 274° |
| 2026-05-07 22:53 | 18.47530 | -72.20536 | 37398 ft | 517 kts | 274° |
| 2026-05-07 22:53 | 18.47531 | -72.24303 | 37643 ft | 517 kts | 274° |
| 2026-05-07 22:53 | 18.47534 | -72.28064 | 37887 ft | 516 kts | 274° |
| 2026-05-07 22:54 | 18.47536 | -72.35604 | 37963 ft | 518 kts | 274° |
| 2026-05-07 22:54 | 18.47535 | -72.43160 | 37968 ft | 519 kts | 274° |
| 2026-05-07 22:55 | 18.47529 | -72.50770 | 37971 ft | 522 kts | 274° |
| 2026-05-07 22:55 | 18.47521 | -72.58379 | 37966 ft | 522 kts | 274° |
| 2026-05-07 22:56 | 18.47510 | -72.65992 | 37967 ft | 522 kts | 274° |
| 2026-05-07 22:56 | 18.47496 | -72.73629 | 37967 ft | 522 kts | 274° |
| 2026-05-07 22:57 | 18.47480 | -72.81237 | 37966 ft | 522 kts | 274° |
| 2026-05-07 22:57 | 18.47458 | -72.88843 | 37967 ft | 522 kts | 274° |
| 2026-05-07 22:58 | 18.47436 | -72.96446 | 37966 ft | 522 kts | 274° |
| 2026-05-07 22:58 | 18.47409 | -73.04078 | 37967 ft | 522 kts | 273° |
| 2026-05-07 22:59 | 18.47380 | -73.11685 | 37967 ft | 522 kts | 274° |
| 2026-05-07 22:59 | 18.47349 | -73.19288 | 37966 ft | 521 kts | 273° |
| 2026-05-07 23:00 | 18.47312 | -73.26916 | 37966 ft | 521 kts | 273° |
| 2026-05-07 23:00 | 18.47274 | -73.34517 | 37966 ft | 521 kts | 273° |
| 2026-05-07 23:01 | 18.47233 | -73.42112 | 37966 ft | 521 kts | 273° |
| 2026-05-07 23:01 | 18.47188 | -73.49705 | 37966 ft | 521 kts | 273° |
| 2026-05-07 23:02 | 18.47141 | -73.57329 | 37966 ft | 521 kts | 273° |
| 2026-05-07 23:02 | 18.47091 | -73.64922 | 37966 ft | 521 kts | 273° |
| 2026-05-07 23:03 | 18.47037 | -73.72517 | 37967 ft | 521 kts | 273° |
| 2026-05-07 23:03 | 18.46982 | -73.80137 | 37967 ft | 521 kts | 273° |
| 2026-05-07 23:04 | 18.46921 | -73.87729 | 37967 ft | 521 kts | 273° |
| 2026-05-07 23:04 | 18.46859 | -73.95320 | 37968 ft | 521 kts | 273° |
| 2026-05-07 23:05 | 18.46794 | -74.02911 | 37976 ft | 521 kts | 272° |
| 2026-05-07 23:05 | 18.46724 | -74.10526 | 37984 ft | 520 kts | 272° |
| 2026-05-07 23:06 | 18.46653 | -74.18105 | 37991 ft | 520 kts | 272° |
| 2026-05-07 23:06 | 18.46579 | -74.25686 | 37991 ft | 520 kts | 272° |
| 2026-05-07 23:07 | 18.46501 | -74.33295 | 37991 ft | 520 kts | 272° |
| 2026-05-07 23:07 | 18.46420 | -74.40875 | 37991 ft | 520 kts | 272° |
| 2026-05-07 23:08 | 18.46338 | -74.48449 | 37991 ft | 520 kts | 272° |
| 2026-05-07 23:08 | 18.46250 | -74.56025 | 37991 ft | 520 kts | 272° |
| 2026-05-07 23:09 | 18.46161 | -74.63624 | 37990 ft | 520 kts | 272° |
| 2026-05-07 23:09 | 18.46068 | -74.71194 | 37991 ft | 519 kts | 272° |
| 2026-05-07 23:10 | 18.45974 | -74.78764 | 37991 ft | 519 kts | 272° |
| 2026-05-07 23:10 | 18.45874 | -74.86358 | 37991 ft | 519 kts | 272° |
| 2026-05-07 23:11 | 18.45773 | -74.93924 | 37992 ft | 519 kts | 272° |
| 2026-05-07 23:11 | 18.45669 | -75.01487 | 37992 ft | 519 kts | 272° |
| 2026-05-07 23:12 | 18.45561 | -75.09063 | 37993 ft | 519 kts | 271° |
| 2026-05-07 23:12 | 18.45451 | -75.16654 | 37993 ft | 519 kts | 271° |
| 2026-05-07 23:13 | 18.45336 | -75.24221 | 37993 ft | 519 kts | 271° |
| 2026-05-07 23:13 | 18.45221 | -75.31789 | 37994 ft | 519 kts | 271° |
| 2026-05-07 23:14 | 18.45100 | -75.39382 | 37993 ft | 519 kts | 271° |
| 2026-05-07 23:14 | 18.44978 | -75.46947 | 37993 ft | 519 kts | 271° |
| 2026-05-07 23:15 | 18.44853 | -75.54507 | 37993 ft | 519 kts | 271° |
| 2026-05-07 23:15 | 18.44725 | -75.62068 | 37993 ft | 519 kts | 271° |
| 2026-05-07 23:16 | 18.44593 | -75.69651 | 37994 ft | 519 kts | 271° |
| 2026-05-07 23:16 | 18.44458 | -75.77208 | 37994 ft | 519 kts | 271° |
| 2026-05-07 23:17 | 18.44321 | -75.84771 | 37994 ft | 519 kts | 271° |
| 2026-05-07 23:17 | 18.44256 | -75.92356 | 37984 ft | 518 kts | 274° |
| 2026-05-07 23:18 | 18.44581 | -75.99892 | 37978 ft | 518 kts | 274° |
| 2026-05-07 23:18 | 18.44881 | -76.07433 | 37969 ft | 518 kts | 274° |
| 2026-05-07 23:19 | 18.45179 | -76.14968 | 37966 ft | 518 kts | 274° |
| 2026-05-07 23:19 | 18.45474 | -76.22533 | 37967 ft | 517 kts | 274° |
| 2026-05-07 23:20 | 18.45766 | -76.30056 | 37966 ft | 516 kts | 274° |
| 2026-05-07 23:20 | 18.46055 | -76.37576 | 37966 ft | 516 kts | 274° |
| 2026-05-07 23:21 | 18.46341 | -76.45121 | 37966 ft | 516 kts | 274° |
| 2026-05-07 23:21 | 18.46623 | -76.52638 | 37966 ft | 516 kts | 274° |
| 2026-05-07 23:22 | 18.46902 | -76.60151 | 37965 ft | 516 kts | 274° |
| 2026-05-07 23:22 | 18.47178 | -76.67661 | 37967 ft | 515 kts | 274° |
| 2026-05-07 23:23 | 18.47452 | -76.75193 | 37967 ft | 515 kts | 274° |
| 2026-05-07 23:23 | 18.47722 | -76.82698 | 37967 ft | 515 kts | 274° |
| 2026-05-07 23:24 | 18.47989 | -76.90197 | 37966 ft | 515 kts | 274° |
| 2026-05-07 23:24 | 18.48254 | -76.97722 | 37966 ft | 515 kts | 274° |
| 2026-05-07 23:25 | 18.48515 | -77.05224 | 37966 ft | 514 kts | 274° |